createdAt,value
2017-11-25T00:00:58.533Z,46.35
2017-11-25T00:02:07.711Z,46.28
2017-11-25T00:03:16.898Z,46.56
2017-11-25T00:04:26.342Z,46.66
2017-11-25T00:05:35.266Z,46.56
2017-11-25T00:06:44.450Z,46.76
2017-11-25T00:07:53.679Z,46.56
2017-11-25T00:09:02.576Z,46.56
2017-11-25T00:10:12.012Z,46.45
2017-11-25T00:11:20.957Z,46.66
2017-11-25T00:12:29.854Z,46.28
2017-11-25T00:13:38.767Z,46.37
2017-11-25T00:14:47.945Z,46.37
2017-11-25T00:15:57.115Z,46.47
2017-11-25T00:17:06.293Z,46.25
2017-11-25T00:18:15.224Z,46.45
2017-11-25T00:19:24.385Z,46.08
2017-11-25T00:20:33.577Z,46.37
2017-11-25T00:21:42.511Z,46.55
2017-11-25T00:22:51.670Z,46.56
2017-11-25T00:24:00.883Z,46.64
2017-11-25T00:25:09.796Z,46.66
2017-11-25T00:26:19.244Z,46.56
2017-11-25T00:27:28.684Z,46.66
2017-11-25T00:28:37.849Z,46.25
2017-11-25T00:29:47.545Z,46.45
2017-11-25T00:30:57.276Z,46.47
2017-11-25T00:32:06.177Z,46.47
2017-11-25T00:33:15.125Z,46.37
2017-11-25T00:34:24.298Z,46.28
2017-11-25T00:35:33.026Z,46.35
2017-11-25T00:36:42.190Z,46.25
2017-11-25T00:37:50.843Z,46.06
2017-11-25T00:39:00.333Z,46.28
2017-11-25T00:40:09.259Z,46.37
2017-11-25T00:41:18.189Z,46.47
2017-11-25T00:42:27.087Z,46.18
2017-11-25T00:43:35.992Z,46.47
2017-11-25T00:44:44.905Z,46.25
2017-11-25T00:45:54.086Z,46.56
2017-11-25T00:47:03.540Z,46.56
2017-11-25T00:48:13.005Z,46.15
2017-11-25T00:49:22.453Z,46.47
2017-11-25T00:50:31.088Z,46.15
2017-11-25T00:51:40.029Z,46.45
2017-11-25T00:52:49.717Z,46.45
2017-11-25T00:53:59.188Z,46.28
2017-11-25T00:55:07.828Z,46.15
2017-11-25T00:56:17.513Z,46.28
2017-11-25T00:57:26.419Z,46.28
2017-11-25T00:58:35.654Z,46.45
2017-11-25T00:59:45.140Z,46.28
2017-11-25T01:00:54.301Z,46.25
2017-11-25T01:02:03.762Z,45.97
2017-11-25T01:03:13.218Z,46.35
2017-11-25T01:04:22.672Z,46.35
2017-11-25T01:05:31.872Z,46.15
2017-11-25T01:06:40.795Z,46.45
2017-11-25T01:07:49.715Z,46.45
2017-11-25T01:08:58.878Z,46.55
2017-11-25T01:10:07.843Z,46.45
2017-11-25T01:11:17.285Z,46.15
2017-11-25T01:12:26.194Z,46.35
2017-11-25T01:13:35.390Z,46.25
2017-11-25T01:14:44.844Z,46.15
2017-11-25T01:15:53.531Z,46.15
2017-11-25T01:17:03.516Z,46.06
2017-11-25T01:18:12.412Z,46.28
2017-11-25T01:19:21.863Z,46.25
2017-11-25T01:20:30.778Z,46.45
2017-11-25T01:21:40.492Z,46.15
2017-11-25T01:22:49.659Z,46.15
2017-11-25T01:23:59.394Z,46.15
2017-11-25T01:25:08.318Z,46.15
2017-11-25T01:26:16.979Z,46.25
2017-11-25T01:27:26.432Z,46.35
2017-11-25T01:28:35.871Z,46.35
2017-11-25T01:29:45.081Z,46.06
2017-11-25T01:30:54.231Z,46.35
2017-11-25T01:32:03.166Z,46.15
2017-11-25T01:33:11.849Z,46.25
2017-11-25T01:34:20.772Z,46.25
2017-11-25T01:35:30.201Z,46.25
2017-11-25T01:36:39.109Z,46.15
2017-11-25T01:37:48.277Z,46.15
2017-11-25T01:38:57.725Z,46.15
2017-11-25T01:40:06.883Z,46.15
2017-11-25T01:41:15.531Z,46.25
2017-11-25T01:42:24.185Z,46.15
2017-11-25T01:43:33.107Z,46.15
2017-11-25T01:44:42.029Z,46.15
2017-11-25T01:45:50.939Z,46.25
2017-11-25T01:47:00.357Z,46.25
2017-11-25T01:48:09.533Z,46.15
2017-11-25T01:49:18.698Z,46.15
2017-11-25T01:50:28.111Z,46.15
2017-11-25T01:51:37.565Z,46.25
2017-11-25T01:52:47.017Z,46.15
2017-11-25T01:53:56.163Z,46.35
2017-11-25T01:55:05.337Z,46.15
2017-11-25T01:56:14.526Z,46.15
2017-11-25T01:57:23.992Z,46.35
2017-11-25T01:58:33.186Z,45.97
2017-11-25T01:59:42.354Z,46.35
2017-11-25T02:00:51.783Z,46.35
2017-11-25T02:02:00.724Z,45.97
2017-11-25T02:03:10.174Z,45.97
2017-11-25T02:04:19.417Z,45.97
2017-11-25T02:05:28.092Z,46.06
2017-11-25T02:06:37.572Z,46.15
2017-11-25T02:07:46.756Z,46.25
2017-11-25T02:08:55.670Z,46.25
2017-11-25T02:10:04.622Z,46.35
2017-11-25T02:11:14.053Z,46.45
2017-11-25T02:12:23.236Z,46.35
2017-11-25T02:13:32.464Z,46.35
2017-11-25T02:14:41.907Z,46.25
2017-11-25T02:15:50.545Z,46.15
2017-11-25T02:16:59.461Z,46.25
2017-11-25T02:18:08.363Z,46.35
2017-11-25T02:19:17.779Z,45.97
2017-11-25T02:20:26.961Z,46.15
2017-11-25T02:21:36.133Z,46.15
2017-11-25T02:22:45.551Z,46.15
2017-11-25T02:23:54.728Z,46.15
2017-11-25T02:25:03.919Z,46.15
2017-11-25T02:26:13.356Z,46.15
2017-11-25T02:27:22.775Z,46.35
2017-11-25T02:28:31.420Z,46.15
2017-11-25T02:29:40.605Z,46.25
2017-11-25T02:30:50.041Z,46.25
2017-11-25T02:31:59.267Z,46.15
2017-11-25T02:33:08.725Z,46.15
2017-11-25T02:34:17.903Z,46.15
2017-11-25T02:35:27.341Z,46.15
2017-11-25T02:36:36.510Z,46.35
2017-11-25T02:37:45.710Z,46.15
2017-11-25T02:38:54.367Z,46.15
2017-11-25T02:40:03.828Z,46.25
2017-11-25T02:41:13.014Z,46.45
2017-11-25T02:42:21.918Z,46.55
2017-11-25T02:43:30.878Z,46.45
2017-11-25T02:44:39.821Z,46.35
2017-11-25T02:45:49.068Z,46.55
2017-11-25T02:46:57.982Z,46.45
2017-11-25T02:48:06.980Z,46.25
2017-11-25T02:49:16.151Z,46.35
2017-11-25T02:50:25.043Z,46.25
2017-11-25T02:51:33.913Z,46.35
2017-11-25T02:52:43.180Z,46.45
2017-11-25T02:53:53.189Z,46.45
2017-11-25T02:55:02.967Z,46.73
2017-11-25T02:56:11.917Z,46.55
2017-11-25T02:57:20.926Z,46.64
2017-11-25T02:58:30.409Z,46.64
2017-11-25T02:59:39.637Z,46.64
2017-11-25T03:00:49.343Z,46.55
2017-11-25T03:01:58.538Z,46.64
2017-11-25T03:03:07.492Z,46.55
2017-11-25T03:04:16.223Z,46.55
2017-11-25T03:05:24.861Z,46.55
2017-11-25T03:06:34.024Z,46.55
2017-11-25T03:07:42.681Z,46.15
2017-11-25T03:08:51.328Z,46.15
2017-11-25T03:10:01.313Z,46.45
2017-11-25T03:11:10.647Z,46.45
2017-11-25T03:12:19.302Z,46.45
2017-11-25T03:13:28.541Z,46.55
2017-11-25T03:14:37.514Z,46.55
2017-11-25T03:15:46.941Z,46.15
2017-11-25T03:16:56.413Z,46.15
2017-11-25T03:18:05.766Z,46.15
2017-11-25T03:19:14.456Z,46.25
2017-11-25T03:20:23.417Z,46.15
2017-11-25T03:21:33.212Z,46.15
2017-11-25T03:22:43.190Z,46.25
2017-11-25T03:23:52.081Z,46.25
2017-11-25T03:25:01.537Z,46.35
2017-11-25T03:26:11.597Z,46.35
2017-11-25T03:27:20.661Z,46.35
2017-11-25T03:28:30.039Z,46.55
2017-11-25T03:29:39.555Z,46.25
2017-11-25T03:30:49.149Z,46.35
2017-11-25T03:31:58.631Z,46.23
2017-11-25T03:33:08.397Z,46.42
2017-11-25T03:34:17.563Z,46.25
2017-11-25T03:35:26.469Z,46.35
2017-11-25T03:36:35.419Z,46.35
2017-11-25T03:37:44.994Z,46.33
2017-11-25T03:38:53.798Z,46.33
2017-11-25T03:40:02.721Z,46.33
2017-11-25T03:41:12.004Z,46.33
2017-11-25T03:42:21.477Z,46.33
2017-11-25T03:43:30.407Z,46.52
2017-11-25T03:44:39.052Z,46.52
2017-11-25T03:45:48.328Z,46.35
2017-11-25T03:46:57.233Z,46.42
2017-11-25T03:48:06.722Z,46.52
2017-11-25T03:49:15.583Z,46.33
2017-11-25T03:50:25.050Z,46.33
2017-11-25T03:51:34.283Z,46.33
2017-11-25T03:52:43.672Z,46.52
2017-11-25T03:53:52.650Z,46.42
2017-11-25T03:55:02.323Z,46.33
2017-11-25T03:56:11.648Z,46.33
2017-11-25T03:57:20.836Z,46.33
2017-11-25T03:58:30.078Z,46.33
2017-11-25T03:59:39.122Z,46.33
2017-11-25T04:00:49.183Z,46.42
2017-11-25T04:01:58.357Z,46.42
2017-11-25T04:03:07.952Z,46.42
2017-11-25T04:04:17.457Z,46.33
2017-11-25T04:05:27.421Z,46.33
2017-11-25T04:06:36.887Z,46.42
2017-11-25T04:07:46.112Z,46.33
2017-11-25T04:08:55.300Z,46.33
2017-11-25T04:10:04.038Z,46.52
2017-11-25T04:11:13.202Z,46.33
2017-11-25T04:12:22.629Z,46.33
2017-11-25T04:13:31.676Z,46.33
2017-11-25T04:14:40.858Z,46.33
2017-11-25T04:15:50.025Z,46.33
2017-11-25T04:16:58.945Z,46.42
2017-11-25T04:18:08.690Z,46.42
2017-11-25T04:19:18.142Z,46.42
2017-11-25T04:20:27.150Z,46.52
2017-11-25T04:21:36.616Z,46.23
2017-11-25T04:22:45.547Z,46.33
2017-11-25T04:23:54.558Z,46.33
2017-11-25T04:25:03.605Z,46.33
2017-11-25T04:26:13.143Z,46.33
2017-11-25T04:27:22.648Z,46.33
2017-11-25T04:28:31.659Z,46.42
2017-11-25T04:29:40.992Z,46.23
2017-11-25T04:30:50.313Z,46.33
2017-11-25T04:31:59.226Z,46.23
2017-11-25T04:33:08.413Z,46.23
2017-11-25T04:34:17.054Z,46.33
2017-11-25T04:35:26.387Z,46.23
2017-11-25T04:36:35.562Z,46.33
2017-11-25T04:37:45.102Z,46.52
2017-11-25T04:38:54.036Z,46.52
2017-11-25T04:40:03.490Z,46.52
2017-11-25T04:41:12.387Z,46.71
2017-11-25T04:42:22.103Z,46.42
2017-11-25T04:43:31.297Z,46.42
2017-11-25T04:44:40.482Z,46.42
2017-11-25T04:45:50.177Z,46.52
2017-11-25T04:46:59.630Z,46.52
2017-11-25T04:48:08.809Z,46.52
2017-11-25T04:49:18.501Z,46.14
2017-11-25T04:50:27.155Z,46.42
2017-11-25T04:51:36.067Z,46.52
2017-11-25T04:52:44.978Z,46.52
2017-11-25T04:53:54.163Z,46.62
2017-11-25T04:55:03.073Z,46.33
2017-11-25T04:56:11.989Z,46.23
2017-11-25T04:57:20.629Z,46.52
2017-11-25T04:58:29.550Z,46.33
2017-11-25T04:59:38.471Z,46.33
2017-11-25T05:00:47.385Z,46.33
2017-11-25T05:01:56.282Z,46.23
2017-11-25T05:03:05.709Z,46.62
2017-11-25T05:04:15.401Z,46.42
2017-11-25T05:05:24.623Z,46.23
2017-11-25T05:06:33.792Z,46.33
2017-11-25T05:07:43.236Z,46.33
2017-11-25T05:08:52.155Z,46.14
2017-11-25T05:10:01.359Z,45.94
2017-11-25T05:11:10.518Z,46.33
2017-11-25T05:12:19.413Z,46.23
2017-11-25T05:13:28.338Z,46.33
2017-11-25T05:14:37.513Z,46.14
2017-11-25T05:15:46.468Z,46.33
2017-11-25T05:16:55.964Z,46.14
2017-11-25T05:18:05.433Z,46.23
2017-11-25T05:19:14.875Z,46.14
2017-11-25T05:20:23.793Z,46.14
2017-11-25T05:21:33.311Z,46.14
2017-11-25T05:22:41.984Z,46.14
2017-11-25T05:23:51.404Z,46.33
2017-11-25T05:25:00.914Z,46.33
2017-11-25T05:26:10.370Z,46.14
2017-11-25T05:27:19.615Z,46.23
2017-11-25T05:28:28.271Z,46.33
2017-11-25T05:29:37.165Z,46.04
2017-11-25T05:30:46.326Z,46.14
2017-11-25T05:31:55.001Z,46.14
2017-11-25T05:33:04.445Z,46.23
2017-11-25T05:34:13.350Z,46.14
2017-11-25T05:35:22.025Z,46.23
2017-11-25T05:36:31.465Z,46.04
2017-11-25T05:37:40.387Z,46.42
2017-11-25T05:38:49.639Z,45.94
2017-11-25T05:39:58.845Z,46.42
2017-11-25T05:41:08.036Z,46.42
2017-11-25T05:42:16.957Z,46.33
2017-11-25T05:43:26.151Z,46.52
2017-11-25T05:44:35.603Z,46.52
2017-11-25T05:45:44.790Z,46.33
2017-11-25T05:46:53.704Z,46.42
2017-11-25T05:48:02.864Z,46.33
2017-11-25T05:49:12.328Z,46.23
2017-11-25T05:50:21.501Z,46.14
2017-11-25T05:51:30.405Z,46.14
2017-11-25T05:52:39.570Z,46.42
2017-11-25T05:53:48.492Z,46.23
2017-11-25T05:54:57.389Z,46.14
2017-11-25T05:56:06.338Z,46.04
2017-11-25T05:57:15.568Z,46.14
2017-11-25T05:58:24.742Z,46.14
2017-11-25T05:59:33.665Z,46.33
2017-11-25T06:00:42.578Z,45.84
2017-11-25T06:01:52.068Z,46.14
2017-11-25T06:03:01.387Z,46.14
2017-11-25T06:04:10.561Z,45.84
2017-11-25T06:05:19.467Z,45.94
2017-11-25T06:06:28.639Z,45.94
2017-11-25T06:07:37.553Z,45.94
2017-11-25T06:08:46.478Z,45.65
2017-11-25T06:09:55.656Z,45.56
2017-11-25T06:11:04.843Z,45.65
2017-11-25T06:12:14.269Z,45.84
2017-11-25T06:13:23.166Z,45.56
2017-11-25T06:14:31.813Z,45.56
2017-11-25T06:15:40.726Z,45.46
2017-11-25T06:16:50.467Z,45.75
2017-11-25T06:17:59.934Z,45.65
2017-11-25T06:19:09.422Z,45.65
2017-11-25T06:20:18.404Z,45.94
2017-11-25T06:21:27.331Z,45.56
2017-11-25T06:22:36.306Z,45.94
2017-11-25T06:23:45.534Z,46.04
2017-11-25T06:24:54.191Z,45.94
2017-11-25T06:26:03.369Z,46.04
2017-11-25T06:27:12.042Z,46.04
2017-11-25T06:28:21.547Z,45.94
2017-11-25T06:29:30.466Z,45.94
2017-11-25T06:30:39.663Z,45.84
2017-11-25T06:31:49.106Z,46.14
2017-11-25T06:32:58.537Z,45.94
2017-11-25T06:34:07.730Z,45.94
2017-11-25T06:35:16.642Z,46.04
2017-11-25T06:36:25.871Z,45.84
2017-11-25T06:37:35.048Z,45.75
2017-11-25T06:38:44.227Z,45.94
2017-11-25T06:39:53.939Z,45.56
2017-11-25T06:41:03.145Z,45.94
2017-11-25T06:42:12.073Z,45.56
2017-11-25T06:43:20.709Z,45.84
2017-11-25T06:44:29.931Z,45.65
2017-11-25T06:45:38.601Z,46.04
2017-11-25T06:46:48.324Z,45.56
2017-11-25T06:47:57.531Z,45.75
2017-11-25T06:49:06.744Z,45.75
2017-11-25T06:50:15.415Z,45.46
2017-11-25T06:51:24.585Z,45.46
2017-11-25T06:52:34.023Z,45.46
2017-11-25T06:53:43.191Z,45.65
2017-11-25T06:54:52.642Z,45.46
2017-11-25T06:56:02.126Z,45.46
2017-11-25T06:57:11.071Z,45.27
2017-11-25T06:58:19.988Z,45.46
2017-11-25T06:59:29.166Z,45.65
2017-11-25T07:00:38.362Z,45.65
2017-11-25T07:01:47.309Z,45.56
2017-11-25T07:02:56.291Z,45.27
2017-11-25T07:04:05.240Z,45.65
2017-11-25T07:05:14.421Z,45.56
2017-11-25T07:06:23.113Z,45.56
2017-11-25T07:07:32.060Z,45.56
2017-11-25T07:08:41.517Z,45.36
2017-11-25T07:09:50.433Z,45.56
2017-11-25T07:10:59.930Z,45.56
2017-11-25T07:12:08.860Z,45.46
2017-11-25T07:13:17.783Z,45.56
2017-11-25T07:14:26.439Z,45.56
2017-11-25T07:15:35.631Z,45.56
2017-11-25T07:16:45.109Z,45.56
2017-11-25T07:17:54.280Z,45.36
2017-11-25T07:19:03.466Z,45.46
2017-11-25T07:20:12.418Z,45.46
2017-11-25T07:21:21.344Z,45.46
2017-11-25T07:22:30.559Z,45.75
2017-11-25T07:23:39.471Z,45.56
2017-11-25T07:24:48.952Z,45.56
2017-11-25T07:25:57.906Z,45.56
2017-11-25T07:27:06.843Z,45.84
2017-11-25T07:28:16.056Z,45.75
2017-11-25T07:29:24.726Z,45.65
2017-11-25T07:30:34.168Z,45.84
2017-11-25T07:31:43.343Z,45.84
2017-11-25T07:32:51.993Z,45.75
2017-11-25T07:34:01.721Z,45.75
2017-11-25T07:35:10.923Z,45.75
2017-11-25T07:36:20.087Z,45.84
2017-11-25T07:37:29.001Z,45.75
2017-11-25T07:38:37.929Z,45.75
2017-11-25T07:39:47.144Z,45.75
2017-11-25T07:40:56.589Z,45.75
2017-11-25T07:42:05.774Z,45.75
2017-11-25T07:43:14.427Z,45.75
2017-11-25T07:44:23.600Z,45.75
2017-11-25T07:45:32.557Z,45.65
2017-11-25T07:46:41.775Z,45.75
2017-11-25T07:47:50.688Z,45.56
2017-11-25T07:49:00.184Z,45.94
2017-11-25T07:50:09.389Z,45.75
2017-11-25T07:51:18.575Z,45.46
2017-11-25T07:52:28.071Z,45.75
2017-11-25T07:53:36.998Z,45.46
2017-11-25T07:54:46.685Z,45.94
2017-11-25T07:55:55.600Z,45.75
2017-11-25T07:57:04.576Z,45.94
2017-11-25T07:58:14.253Z,45.84
2017-11-25T07:59:23.441Z,45.46
2017-11-25T08:00:32.685Z,45.84
2017-11-25T08:01:42.313Z,45.84
2017-11-25T08:02:51.769Z,45.56
2017-11-25T08:04:01.088Z,45.46
2017-11-25T08:05:10.533Z,45.07
2017-11-25T08:06:20.654Z,45.46
2017-11-25T08:07:30.120Z,45.36
2017-11-25T08:08:39.064Z,45.17
2017-11-25T08:09:47.996Z,45.17
2017-11-25T08:10:57.721Z,45.07
2017-11-25T08:12:07.186Z,44.98
2017-11-25T08:13:16.100Z,45.17
2017-11-25T08:14:25.737Z,45.07
2017-11-25T08:15:34.411Z,45.17
2017-11-25T08:16:43.863Z,45.07
2017-11-25T08:17:53.033Z,44.59
2017-11-25T08:19:02.498Z,44.79
2017-11-25T08:20:11.331Z,44.59
2017-11-25T08:21:20.518Z,44.62
2017-11-25T08:22:29.782Z,44.81
2017-11-25T08:23:40.673Z,44.13
2017-11-25T08:24:50.858Z,44.13
2017-11-25T08:26:00.091Z,43.94
2017-11-25T08:27:09.302Z,44.04
2017-11-25T08:28:18.777Z,43.85
2017-11-25T08:29:27.422Z,43.87
2017-11-25T08:30:36.661Z,44.06
2017-11-25T08:31:45.590Z,43.38
2017-11-25T08:32:54.804Z,43.67
2017-11-25T08:34:04.293Z,43.67
2017-11-25T08:35:13.509Z,43.58
2017-11-25T08:36:22.995Z,43.48
2017-11-25T08:37:32.193Z,43
2017-11-25T08:38:41.182Z,43.21
2017-11-25T08:39:50.688Z,43.02
2017-11-25T08:41:00.136Z,42.93
2017-11-25T08:42:08.786Z,43.12
2017-11-25T08:43:17.692Z,42.83
2017-11-25T08:44:26.879Z,42.93
2017-11-25T08:45:36.335Z,42.83
2017-11-25T08:46:46.054Z,42.63
2017-11-25T08:47:54.705Z,42.25
2017-11-25T08:49:03.681Z,42.08
2017-11-25T08:50:12.591Z,42.66
2017-11-25T08:51:22.133Z,42.36
2017-11-25T08:52:31.169Z,42.27
2017-11-25T08:53:39.833Z,42.36
2017-11-25T08:54:49.038Z,42.27
2017-11-25T08:55:57.961Z,41.88
2017-11-25T08:57:06.885Z,42.18
2017-11-25T08:58:16.381Z,41.98
2017-11-25T08:59:25.016Z,42.36
2017-11-25T09:00:33.941Z,42.36
2017-11-25T09:01:43.390Z,42.36
2017-11-25T09:02:52.592Z,42.36
2017-11-25T09:04:01.521Z,42.36
2017-11-25T09:05:11.005Z,42.27
2017-11-25T09:06:20.440Z,42.36
2017-11-25T09:07:29.886Z,42.39
2017-11-25T09:08:39.091Z,42.48
2017-11-25T09:09:48.283Z,42.36
2017-11-25T09:10:56.961Z,42.39
2017-11-25T09:12:05.980Z,42.39
2017-11-25T09:13:15.181Z,42
2017-11-25T09:14:24.882Z,41.78
2017-11-25T09:15:33.803Z,42.29
2017-11-25T09:16:42.996Z,42.27
2017-11-25T09:17:52.447Z,42.27
2017-11-25T09:19:01.380Z,42.18
2017-11-25T09:20:10.288Z,42.36
2017-11-25T09:21:19.496Z,42.66
2017-11-25T09:22:28.413Z,42.36
2017-11-25T09:23:37.598Z,42.56
2017-11-25T09:24:47.051Z,42.56
2017-11-25T09:25:56.223Z,42.56
2017-11-25T09:27:05.455Z,42.85
2017-11-25T09:28:14.917Z,42.85
2017-11-25T09:29:24.181Z,42.85
2017-11-25T09:30:33.631Z,42.85
2017-11-25T09:31:42.826Z,42.94
2017-11-25T09:32:51.751Z,43.14
2017-11-25T09:34:00.684Z,42.94
2017-11-25T09:35:09.592Z,42.94
2017-11-25T09:36:18.517Z,42.94
2017-11-25T09:37:28.243Z,43.14
2017-11-25T09:38:37.165Z,43.04
2017-11-25T09:39:46.086Z,43.04
2017-11-25T09:40:55.001Z,43.33
2017-11-25T09:42:04.207Z,43.33
2017-11-25T09:43:13.133Z,42.94
2017-11-25T09:44:22.060Z,43.52
2017-11-25T09:45:32.039Z,43.5
2017-11-25T09:46:41.240Z,43.79
2017-11-25T09:47:50.160Z,43.7
2017-11-25T09:48:58.824Z,43.79
2017-11-25T09:50:07.487Z,43.72
2017-11-25T09:51:16.442Z,43.79
2017-11-25T09:52:25.622Z,43.7
2017-11-25T09:53:34.275Z,43.6
2017-11-25T09:54:43.213Z,43.5
2017-11-25T09:55:52.934Z,43.5
2017-11-25T09:57:01.864Z,43.6
2017-11-25T09:58:11.331Z,43.6
2017-11-25T09:59:19.987Z,43.7
2017-11-25T10:00:29.166Z,43.6
2017-11-25T10:01:38.102Z,43.98
2017-11-25T10:02:47.030Z,44.27
2017-11-25T10:03:56.481Z,43.98
2017-11-25T10:05:06.118Z,44.08
2017-11-25T10:06:15.070Z,43.98
2017-11-25T10:07:24.267Z,43.89
2017-11-25T10:08:33.208Z,43.98
2017-11-25T10:09:41.898Z,43.89
2017-11-25T10:10:51.088Z,43.89
2017-11-25T10:12:00.537Z,44.18
2017-11-25T10:13:09.465Z,43.98
2017-11-25T10:14:19.187Z,43.98
2017-11-25T10:15:28.655Z,44.15
2017-11-25T10:16:37.855Z,43.98
2017-11-25T10:17:47.325Z,44.06
2017-11-25T10:18:56.241Z,44.06
2017-11-25T10:20:05.674Z,44.06
2017-11-25T10:21:14.850Z,44.15
2017-11-25T10:22:24.063Z,44.06
2017-11-25T10:23:33.242Z,44.15
2017-11-25T10:24:42.972Z,44.06
2017-11-25T10:25:52.160Z,44.15
2017-11-25T10:27:01.621Z,44.06
2017-11-25T10:28:10.797Z,44.06
2017-11-25T10:29:19.995Z,44.15
2017-11-25T10:30:28.909Z,44.15
2017-11-25T10:31:37.824Z,44.35
2017-11-25T10:32:46.746Z,44.25
2017-11-25T10:33:55.661Z,44.15
2017-11-25T10:35:04.586Z,44.25
2017-11-25T10:36:13.772Z,44.25
2017-11-25T10:37:22.690Z,44.25
2017-11-25T10:38:31.879Z,44.25
2017-11-25T10:39:41.052Z,44.15
2017-11-25T10:40:49.961Z,44.25
2017-11-25T10:41:58.888Z,44.15
2017-11-25T10:43:08.337Z,44.25
2017-11-25T10:44:17.777Z,44.15
2017-11-25T10:45:26.970Z,44.06
2017-11-25T10:46:36.165Z,44.25
2017-11-25T10:47:44.817Z,44.15
2017-11-25T10:48:53.474Z,44.06
2017-11-25T10:50:02.402Z,44.06
2017-11-25T10:51:11.871Z,44.06
2017-11-25T10:52:21.058Z,43.96
2017-11-25T10:53:29.703Z,44.54
2017-11-25T10:54:38.893Z,44.06
2017-11-25T10:55:47.812Z,43.96
2017-11-25T10:56:57.290Z,43.96
2017-11-25T10:58:06.760Z,44.06
2017-11-25T10:59:15.944Z,44.06
2017-11-25T11:00:25.445Z,44.06
2017-11-25T11:01:34.390Z,44.15
2017-11-25T11:02:43.311Z,44.15
2017-11-25T11:03:52.231Z,44.15
2017-11-25T11:05:00.940Z,44.08
2017-11-25T11:06:09.600Z,44.06
2017-11-25T11:07:19.304Z,44.25
2017-11-25T11:08:27.973Z,44.37
2017-11-25T11:09:36.913Z,44.06
2017-11-25T11:10:46.091Z,44.25
2017-11-25T11:11:55.292Z,44.06
2017-11-25T11:13:04.492Z,44.06
2017-11-25T11:14:13.680Z,44.15
2017-11-25T11:15:22.871Z,44.06
2017-11-25T11:16:32.053Z,44.06
2017-11-25T11:17:40.975Z,44.18
2017-11-25T11:18:49.880Z,44.15
2017-11-25T11:19:58.788Z,44.15
2017-11-25T11:21:08.251Z,44.15
2017-11-25T11:22:17.197Z,44.15
2017-11-25T11:23:26.366Z,44.06
2017-11-25T11:24:35.013Z,44.15
2017-11-25T11:25:43.935Z,43.96
2017-11-25T11:26:53.401Z,44.06
2017-11-25T11:28:02.094Z,44.06
2017-11-25T11:29:11.798Z,44.06
2017-11-25T11:30:20.724Z,44.06
2017-11-25T11:31:29.892Z,44.06
2017-11-25T11:32:38.543Z,44.06
2017-11-25T11:33:47.460Z,44.06
2017-11-25T11:34:56.384Z,43.96
2017-11-25T11:36:05.842Z,44.15
2017-11-25T11:37:14.741Z,43.96
2017-11-25T11:38:24.209Z,43.96
2017-11-25T11:39:32.876Z,43.96
2017-11-25T11:40:42.104Z,44.15
2017-11-25T11:41:51.283Z,44.25
2017-11-25T11:42:59.996Z,44.35
2017-11-25T11:44:08.613Z,44.35
2017-11-25T11:45:17.865Z,44.35
2017-11-25T11:46:27.343Z,44.06
2017-11-25T11:47:37.079Z,44.15
2017-11-25T11:48:45.976Z,43.96
2017-11-25T11:49:55.171Z,44.15
2017-11-25T11:51:04.684Z,44.06
2017-11-25T11:52:13.853Z,44.25
2017-11-25T11:53:22.765Z,44.06
2017-11-25T11:54:31.937Z,44.15
2017-11-25T11:55:40.851Z,44.15
2017-11-25T11:56:50.300Z,44.15
2017-11-25T11:58:00.011Z,44.15
2017-11-25T11:59:09.473Z,44.15
2017-11-25T12:00:18.406Z,44.25
2017-11-25T12:01:27.577Z,44.25
2017-11-25T12:02:37.061Z,44.06
2017-11-25T12:03:46.253Z,44.15
2017-11-25T12:04:54.912Z,44.15
2017-11-25T12:06:04.123Z,44.15
2017-11-25T12:07:13.336Z,44.15
2017-11-25T12:08:22.790Z,44.15
2017-11-25T12:09:32.016Z,44.35
2017-11-25T12:10:40.924Z,44.15
2017-11-25T12:11:50.099Z,44.15
2017-11-25T12:12:59.020Z,44.15
2017-11-25T12:14:08.237Z,44.35
2017-11-25T12:15:17.420Z,44.25
2017-11-25T12:16:26.586Z,44.25
2017-11-25T12:17:36.037Z,44.25
2017-11-25T12:18:44.695Z,44.35
2017-11-25T12:19:54.152Z,44.35
2017-11-25T12:21:03.367Z,44.25
2017-11-25T12:22:12.548Z,44.15
2017-11-25T12:23:21.472Z,44.25
2017-11-25T12:24:30.379Z,44.25
2017-11-25T12:25:39.280Z,44.15
2017-11-25T12:26:48.464Z,44.25
2017-11-25T12:27:57.988Z,44.15
2017-11-25T12:29:07.459Z,44.25
2017-11-25T12:30:16.121Z,44.15
2017-11-25T12:31:25.311Z,44.15
2017-11-25T12:32:33.977Z,44.06
2017-11-25T12:33:42.925Z,44.15
2017-11-25T12:34:52.147Z,43.96
2017-11-25T12:36:01.098Z,44.06
2017-11-25T12:37:10.545Z,44.15
2017-11-25T12:38:19.744Z,44.25
2017-11-25T12:39:28.936Z,44.06
2017-11-25T12:40:38.389Z,44.15
2017-11-25T12:41:47.568Z,44.06
2017-11-25T12:42:56.231Z,44.15
2017-11-25T12:44:05.170Z,43.87
2017-11-25T12:45:14.355Z,43.77
2017-11-25T12:46:23.286Z,43.67
2017-11-25T12:47:32.467Z,43.96
2017-11-25T12:48:41.129Z,43.87
2017-11-25T12:49:50.588Z,43.87
2017-11-25T12:50:59.516Z,43.79
2017-11-25T12:52:08.156Z,44.06
2017-11-25T12:53:17.082Z,44.08
2017-11-25T12:54:25.740Z,44.18
2017-11-25T12:55:34.943Z,44.08
2017-11-25T12:56:44.649Z,44.08
2017-11-25T12:57:53.837Z,43.98
2017-11-25T12:59:03.024Z,44.08
2017-11-25T13:00:12.204Z,43.79
2017-11-25T13:01:21.637Z,43.96
2017-11-25T13:02:30.588Z,43.67
2017-11-25T13:03:39.772Z,44.06
2017-11-25T13:04:48.961Z,43.77
2017-11-25T13:05:58.175Z,44.15
2017-11-25T13:07:07.359Z,44.06
2017-11-25T13:08:16.023Z,44.18
2017-11-25T13:09:25.231Z,44.06
2017-11-25T13:10:33.880Z,44.15
2017-11-25T13:11:43.354Z,43.96
2017-11-25T13:12:53.105Z,43.96
2017-11-25T13:14:02.087Z,44.15
2017-11-25T13:15:11.284Z,43.77
2017-11-25T13:16:21.014Z,44.15
2017-11-25T13:17:29.708Z,44.35
2017-11-25T13:18:38.897Z,44.06
2017-11-25T13:19:47.549Z,44.06
2017-11-25T13:20:57.015Z,44.15
2017-11-25T13:22:06.500Z,44.06
2017-11-25T13:23:15.698Z,44.06
2017-11-25T13:24:25.194Z,44.15
2017-11-25T13:25:34.398Z,44.25
2017-11-25T13:26:43.564Z,43.96
2017-11-25T13:27:52.802Z,43.96
2017-11-25T13:29:01.726Z,44.06
2017-11-25T13:30:10.898Z,44.15
2017-11-25T13:31:20.612Z,44.15
2017-11-25T13:32:29.801Z,44.06
2017-11-25T13:33:38.960Z,44.06
2017-11-25T13:34:48.504Z,44.25
2017-11-25T13:35:57.736Z,44.15
2017-11-25T13:37:06.681Z,44.15
2017-11-25T13:38:16.175Z,44.25
2017-11-25T13:39:25.171Z,44.15
2017-11-25T13:40:34.111Z,44.54
2017-11-25T13:41:43.031Z,44.45
2017-11-25T13:42:51.965Z,44.54
2017-11-25T13:44:01.162Z,44.64
2017-11-25T13:45:10.387Z,44.93
2017-11-25T13:46:19.306Z,44.83
2017-11-25T13:47:28.237Z,44.83
2017-11-25T13:48:37.134Z,44.73
2017-11-25T13:49:46.050Z,44.54
2017-11-25T13:50:55.216Z,44.64
2017-11-25T13:52:04.414Z,44.64
2017-11-25T13:53:13.588Z,44.25
2017-11-25T13:54:22.786Z,44.45
2017-11-25T13:55:31.704Z,44.64
2017-11-25T13:56:41.416Z,44.15
2017-11-25T13:57:50.324Z,44.15
2017-11-25T13:58:58.984Z,44.15
2017-11-25T14:00:08.400Z,44.45
2017-11-25T14:01:17.327Z,44.06
2017-11-25T14:02:26.536Z,44.35
2017-11-25T14:03:35.714Z,44.25
2017-11-25T14:04:44.618Z,44.25
2017-11-25T14:05:54.079Z,44.25
2017-11-25T14:07:03.313Z,44.15
2017-11-25T14:08:12.492Z,44.15
2017-11-25T14:09:21.137Z,44.35
2017-11-25T14:10:30.605Z,44.25
2017-11-25T14:11:39.558Z,44.35
2017-11-25T14:12:48.735Z,44.25
2017-11-25T14:13:58.187Z,44.25
2017-11-25T14:15:07.404Z,44.15
2017-11-25T14:16:16.336Z,44.25
2017-11-25T14:17:25.599Z,44.15
2017-11-25T14:18:34.770Z,44.15
2017-11-25T14:19:43.688Z,44.15
2017-11-25T14:20:52.889Z,44.25
2017-11-25T14:22:02.054Z,44.25
2017-11-25T14:23:11.510Z,44.25
2017-11-25T14:24:20.180Z,44.15
2017-11-25T14:25:29.102Z,44.25
2017-11-25T14:26:38.276Z,44.35
2017-11-25T14:27:47.452Z,44.25
2017-11-25T14:28:56.131Z,44.25
2017-11-25T14:30:05.840Z,44.15
2017-11-25T14:31:15.266Z,44.06
2017-11-25T14:32:24.515Z,44.25
2017-11-25T14:33:33.702Z,44.25
2017-11-25T14:34:42.871Z,44.15
2017-11-25T14:35:51.801Z,44.25
2017-11-25T14:37:01.277Z,44.15
2017-11-25T14:38:10.452Z,44.45
2017-11-25T14:39:19.393Z,44.73
2017-11-25T14:40:28.581Z,44.73
2017-11-25T14:41:37.496Z,44.83
2017-11-25T14:42:46.669Z,44.64
2017-11-25T14:43:55.854Z,44.64
2017-11-25T14:45:05.298Z,44.64
2017-11-25T14:46:14.773Z,44.64
2017-11-25T14:47:23.678Z,44.35
2017-11-25T14:48:32.590Z,44.64
2017-11-25T14:49:41.258Z,44.64
2017-11-25T14:50:50.479Z,44.54
2017-11-25T14:51:59.399Z,44.64